Time;durP1;ratioP1;P1;durP2;ratioP2;P2;SDS_P1;SDS_P2;PMS_P1;PMS_P2;Temp;Humidity;BMP_temperature;BMP_pressure;BME280_temperature;BME280_humidity;BME280_pressure;Samples;Min_cycle;Max_cycle;Signal;HPM_P1;HPM_P2
2024/03/10 00:00:41;;;;;;;13.60;10.33;;;9.20;99.90;;;;;;5050447;28;20190;-71
2024/03/10 00:03:07;;;;;;;14.10;10.50;;;9.20;99.90;;;;;;5032852;28;20261;-72
2024/03/10 00:05:34;;;;;;;14.17;10.27;;;9.20;99.90;;;;;;5050537;28;20182;-72
2024/03/10 00:08:00;;;;;;;14.63;11.17;;;9.20;99.90;;;;;;5050619;28;20609;-71
2024/03/10 00:10:26;;;;;;;17.17;10.57;;;9.20;99.90;;;;;;5043431;28;20238;-71
2024/03/10 00:12:52;;;;;;;15.50;11.10;;;9.20;99.90;;;;;;5047151;28;20190;-72
2024/03/10 00:15:21;;;;;;;14.23;10.77;;;9.20;99.90;;;;;;5048482;28;20184;-72
2024/03/10 00:17:47;;;;;;;14.67;10.80;;;9.30;99.90;;;;;;5046704;28;20183;-72
2024/03/10 00:20:13;;;;;;;14.40;10.73;;;9.20;99.90;;;;;;5054895;28;20190;-72
2024/03/10 00:22:42;;;;;;;13.70;10.97;;;9.30;99.90;;;;;;5054889;28;20206;-72
2024/03/10 00:25:09;;;;;;;14.17;10.30;;;9.30;99.90;;;;;;5054390;28;20226;-72
2024/03/10 00:27:38;;;;;;;13.97;10.37;;;9.30;99.90;;;;;;5054973;28;20291;-72
2024/03/10 00:30:05;;;;;;;17.27;10.10;;;9.30;99.90;;;;;;5054075;28;20171;-72
2024/03/10 00:32:35;;;;;;;12.80;9.70;;;9.40;99.90;;;;;;5047369;28;20209;-72
2024/03/10 00:35:01;;;;;;;13.93;10.10;;;9.50;99.90;;;;;;5054549;28;20233;-72
2024/03/10 00:37:28;;;;;;;13.77;10.73;;;9.50;99.90;;;;;;5052593;28;20258;-71
2024/03/10 00:39:53;;;;;;;12.27;10.00;;;9.50;99.90;;;;;;5050235;28;20183;-72
2024/03/10 00:42:23;;;;;;;12.30;9.80;;;9.60;99.90;;;;;;5054387;28;20740;-71
2024/03/10 00:44:50;;;;;;;12.93;9.53;;;9.60;99.90;;;;;;5054263;28;20167;-72
2024/03/10 00:47:16;;;;;;;14.27;10.37;;;9.60;99.90;;;;;;5053671;28;20210;-71
2024/03/10 00:49:41;;;;;;;12.97;9.73;;;9.70;99.90;;;;;;5054311;28;20167;-72
2024/03/10 00:52:07;;;;;;;12.90;9.67;;;9.70;99.90;;;;;;5053076;28;20562;-72
2024/03/10 00:54:42;;;;;;;12.87;9.03;;;9.70;99.90;;;;;;5046027;28;20174;-72
2024/03/10 00:57:08;;;;;;;11.97;9.63;;;9.70;99.90;;;;;;5052915;28;20181;-72
2024/03/10 00:59:34;;;;;;;11.53;8.70;;;9.70;99.90;;;;;;5055028;28;20331;-72
2024/03/10 01:01:59;;;;;;;14.97;9.60;;;9.70;99.90;;;;;;5055567;28;20257;-72
2024/03/10 01:04:25;;;;;;;13.03;9.77;;;9.70;99.90;;;;;;5055304;28;20171;-71
2024/03/10 01:06:51;;;;;;;12.63;9.80;;;9.60;99.90;;;;;;5054364;28;20249;-71
2024/03/10 01:09:18;;;;;;;10.50;8.90;;;9.60;99.90;;;;;;5050065;28;20179;-71
2024/03/10 01:11:47;;;;;;;13.17;10.23;;;9.50;99.90;;;;;;5052831;28;20186;-72
2024/03/10 01:14:14;;;;;;;16.03;10.33;;;9.50;99.90;;;;;;5052674;28;20187;-72
2024/03/10 01:16:41;;;;;;;11.97;9.77;;;9.50;99.90;;;;;;5052586;28;20254;-71
2024/03/10 01:19:09;;;;;;;12.40;9.70;;;9.40;99.90;;;;;;5052647;28;20175;-72
2024/03/10 01:21:35;;;;;;;11.63;8.97;;;9.30;99.90;;;;;;5067316;23;20281;-85
2024/03/10 01:24:01;;;;;;;13.13;9.90;;;9.30;99.90;;;;;;5037291;28;20199;-85
2024/03/10 01:26:27;;;;;;;11.97;8.87;;;9.20;99.90;;;;;;5029065;28;20211;-85
2024/03/10 01:28:52;;;;;;;12.17;9.70;;;9.20;99.90;;;;;;5038650;28;20234;-84
2024/03/10 01:31:18;;;;;;;13.53;9.43;;;9.20;99.90;;;;;;5022206;28;20187;-85
2024/03/10 01:33:43;;;;;;;12.27;9.57;;;9.20;99.90;;;;;;5012590;28;20223;-85
2024/03/10 01:36:09;;;;;;;14.37;9.43;;;9.10;99.90;;;;;;5015330;28;20183;-84
2024/03/10 01:38:34;;;;;;;11.87;9.37;;;9.10;99.90;;;;;;5018214;28;20198;-86
2024/03/10 01:41:00;;;;;;;13.53;10.90;;;9.10;99.90;;;;;;5017375;28;20183;-86
2024/03/10 01:43:26;;;;;;;13.30;10.50;;;9.10;99.90;;;;;;5021073;28;20210;-85
2024/03/10 01:46:06;;;;;;;11.70;9.57;;;9.10;99.90;;;;;;5029636;28;20183;-85
2024/03/10 01:48:36;;;;;;;17.50;10.43;;;9.20;99.90;;;;;;5019850;28;20174;-86
2024/03/10 01:51:04;;;;;;;13.30;9.67;;;9.20;99.90;;;;;;5014199;28;20254;-86
2024/03/10 01:53:31;;;;;;;11.33;9.53;;;9.20;99.90;;;;;;5017472;28;20268;-85
2024/03/10 01:55:59;;;;;;;14.37;10.70;;;9.30;99.90;;;;;;5007400;28;20418;-85
2024/03/10 01:58:27;;;;;;;12.37;10.00;;;9.30;99.90;;;;;;5009667;28;20572;-85
2024/03/10 02:00:53;;;;;;;12.30;9.43;;;9.40;99.90;;;;;;5010412;28;20225;-85
2024/03/10 02:03:20;;;;;;;11.47;9.77;;;9.40;99.90;;;;;;5002293;28;20222;-85
2024/03/10 02:05:46;;;;;;;12.83;9.80;;;9.40;99.90;;;;;;5004149;28;20330;-85
2024/03/10 02:08:14;;;;;;;11.23;9.37;;;9.50;99.90;;;;;;5006951;28;20283;-85
2024/03/10 02:10:42;;;;;;;13.17;9.33;;;9.50;99.90;;;;;;5024536;28;20177;-85
2024/03/10 02:13:07;;;;;;;10.93;8.97;;;9.50;99.90;;;;;;5000591;28;20196;-85
2024/03/10 02:15:35;;;;;;;11.07;9.90;;;9.60;99.90;;;;;;5007419;28;20206;-85
2024/03/10 02:18:01;;;;;;;12.13;9.00;;;9.50;99.90;;;;;;5030194;28;20175;-85
2024/03/10 02:20:27;;;;;;;15.13;11.70;;;9.50;99.90;;;;;;5017071;28;20611;-85
2024/03/10 02:22:52;;;;;;;16.50;13.23;;;9.50;99.90;;;;;;4997576;28;20192;-86
2024/03/10 02:25:26;;;;;;;13.60;10.37;;;9.40;99.90;;;;;;5006593;28;20214;-85
2024/03/10 02:27:53;;;;;;;16.70;12.83;;;9.40;99.90;;;;;;5006242;28;20693;-86
2024/03/10 02:30:19;;;;;;;11.80;9.73;;;9.40;99.90;;;;;;5024050;28;20181;-85
2024/03/10 02:49:14;;;;;;;12.07;9.43;;;9.20;99.90;;;;;;5025881;28;20191;-85
2024/03/10 02:51:47;;;;;;;13.77;11.17;;;9.20;99.90;;;;;;5030536;28;20168;-86
2024/03/10 02:54:13;;;;;;;12.47;10.03;;;9.20;99.90;;;;;;5029095;28;20202;-85
2024/03/10 02:56:39;;;;;;;14.00;10.17;;;9.20;99.90;;;;;;5005445;28;20207;-85
2024/03/10 02:59:06;;;;;;;13.00;10.27;;;9.20;99.90;;;;;;5007906;28;20176;-85
2024/03/10 03:01:37;;;;;;;14.10;11.97;;;9.20;99.90;;;;;;4999713;28;20186;-85
2024/03/10 03:04:04;;;;;;;11.40;10.07;;;9.20;99.90;;;;;;5024003;28;20193;-85
2024/03/10 03:06:30;;;;;;;12.40;9.67;;;9.20;99.90;;;;;;4997168;28;20203;-85
2024/03/10 03:08:56;;;;;;;12.50;8.63;;;9.20;99.90;;;;;;4997815;28;20172;-85
2024/03/10 03:11:21;;;;;;;9.77;8.53;;;9.20;99.90;;;;;;5015006;28;20550;-85
2024/03/10 03:13:48;;;;;;;10.93;8.90;;;9.20;99.90;;;;;;5003184;28;20191;-85
2024/03/10 03:16:14;;;;;;;13.57;9.17;;;9.20;99.90;;;;;;5007762;28;20194;-85
2024/03/10 03:18:40;;;;;;;10.60;9.27;;;9.30;99.90;;;;;;5023017;28;20263;-85
2024/03/10 03:21:06;;;;;;;12.37;9.33;;;9.20;99.90;;;;;;4997580;28;20729;-86
2024/03/10 03:23:32;;;;;;;11.20;9.03;;;9.30;99.90;;;;;;4997487;28;20207;-86
2024/03/10 03:25:57;;;;;;;12.13;9.20;;;9.30;99.90;;;;;;5014447;28;20211;-86
2024/03/10 03:28:23;;;;;;;12.20;9.53;;;9.30;99.90;;;;;;4980815;28;20180;-85
2024/03/10 03:30:49;;;;;;;11.07;8.50;;;9.30;99.90;;;;;;5004550;28;20428;-85
2024/03/10 03:33:15;;;;;;;10.13;8.57;;;9.30;99.90;;;;;;4998836;28;20199;-85
2024/03/10 03:35:40;;;;;;;9.23;7.90;;;9.30;99.90;;;;;;5019022;28;20206;-86
2024/03/10 03:38:06;;;;;;;11.70;8.53;;;9.30;99.90;;;;;;5005605;28;20183;-85
2024/03/10 03:40:32;;;;;;;13.30;8.43;;;9.30;99.90;;;;;;4997735;28;20260;-85
2024/03/10 03:42:58;;;;;;;11.90;8.83;;;9.30;99.90;;;;;;5005365;28;20229;-85
2024/03/10 03:45:24;;;;;;;15.03;9.63;;;9.40;99.90;;;;;;5014135;28;20172;-86
2024/03/10 03:47:49;;;;;;;10.87;8.53;;;9.40;99.90;;;;;;5014196;28;20212;-85
2024/03/10 03:50:16;;;;;;;12.37;9.07;;;9.40;99.90;;;;;;4996905;28;20180;-85
2024/03/10 03:52:42;;;;;;;10.17;8.70;;;9.50;99.90;;;;;;4980493;28;20696;-86
2024/03/10 03:55:08;;;;;;;7.93;7.10;;;9.50;99.90;;;;;;5001112;28;20242;-88
2024/03/10 03:57:35;;;;;;;9.57;7.70;;;9.50;99.90;;;;;;5000280;28;20180;-86
2024/03/10 04:00:05;;;;;;;9.20;7.43;;;9.50;99.90;;;;;;5000490;28;20224;-85
2024/03/10 04:02:31;;;;;;;10.03;8.23;;;9.50;99.90;;;;;;5017942;28;20187;-85
2024/03/10 04:04:57;;;;;;;9.30;7.97;;;9.50;99.90;;;;;;5000299;28;20212;-85
2024/03/10 04:07:23;;;;;;;12.93;7.77;;;9.50;99.90;;;;;;4999533;28;20234;-85
2024/03/10 04:09:49;;;;;;;12.07;8.77;;;9.60;99.90;;;;;;4991947;28;20226;-86
2024/03/10 04:12:14;;;;;;;9.73;7.50;;;9.60;99.90;;;;;;5000137;28;20180;-85
2024/03/10 04:14:40;;;;;;;10.27;8.13;;;9.70;99.90;;;;;;5017523;28;20282;-85
2024/03/10 04:17:06;;;;;;;9.70;7.70;;;9.70;99.90;;;;;;5000010;28;20176;-86
2024/03/10 04:19:32;;;;;;;10.53;8.80;;;9.70;99.90;;;;;;4999908;28;20556;-85
2024/03/10 04:21:57;;;;;;;11.37;9.83;;;9.70;99.90;;;;;;4999571;28;20323;-85
2024/03/10 04:24:23;;;;;;;10.37;8.33;;;9.70;99.90;;;;;;4999433;28;20219;-85
2024/03/10 04:26:50;;;;;;;12.10;8.67;;;9.60;99.90;;;;;;4983367;28;20219;-86
2024/03/10 04:29:16;;;;;;;9.33;7.80;;;9.70;99.90;;;;;;5016512;28;20187;-85
2024/03/10 04:31:41;;;;;;;10.37;7.83;;;9.70;99.90;;;;;;5027959;28;20184;-86
2024/03/10 04:34:12;;;;;;;8.60;7.77;;;9.60;99.90;;;;;;5007432;28;20188;-86
2024/03/10 04:36:38;;;;;;;8.83;7.77;;;9.60;99.90;;;;;;5014113;28;20238;-86
2024/03/10 04:39:05;;;;;;;9.50;7.37;;;9.60;99.90;;;;;;5010935;28;20183;-85
2024/03/10 04:41:31;;;;;;;8.90;7.70;;;9.60;99.90;;;;;;5026009;28;20191;-85
2024/03/10 04:43:56;;;;;;;9.83;7.83;;;9.60;99.90;;;;;;5008153;28;20196;-85
2024/03/10 04:46:22;;;;;;;12.27;8.20;;;9.70;99.90;;;;;;5018840;28;20560;-85
2024/03/10 04:48:50;;;;;;;8.03;7.23;;;9.70;99.90;;;;;;5019107;28;20601;-86
2024/03/10 04:51:17;;;;;;;10.23;8.80;;;9.70;99.90;;;;;;5001442;28;20180;-86
2024/03/10 04:53:43;;;;;;;9.70;7.87;;;9.80;99.90;;;;;;5001016;28;20196;-86
2024/03/10 04:56:12;;;;;;;9.37;8.00;;;9.80;99.90;;;;;;5000261;28;20200;-85
2024/03/10 04:58:41;;;;;;;9.20;8.30;;;9.80;99.90;;;;;;5000375;28;20180;-85
2024/03/10 05:01:08;;;;;;;12.67;10.70;;;9.80;99.90;;;;;;4999646;28;20183;-85
2024/03/10 05:03:37;;;;;;;9.00;8.10;;;9.90;99.90;;;;;;4999338;28;20694;-85
2024/03/10 05:06:04;;;;;;;18.90;14.87;;;9.90;99.90;;;;;;4997896;28;20177;-85
2024/03/10 05:08:30;;;;;;;9.97;8.30;;;9.90;99.90;;;;;;4999122;28;20183;-85
2024/03/10 05:10:55;;;;;;;10.07;7.30;;;9.90;99.90;;;;;;5017051;28;20184;-85
2024/03/10 05:13:21;;;;;;;9.33;7.43;;;9.90;99.90;;;;;;5025993;28;20211;-85
2024/03/10 05:15:48;;;;;;;10.20;7.80;;;9.90;99.90;;;;;;4993809;28;20180;-85
2024/03/10 05:18:16;;;;;;;8.87;8.00;;;9.90;99.90;;;;;;5010370;28;20184;-86
2024/03/10 05:20:42;;;;;;;10.30;7.90;;;9.90;99.90;;;;;;4995084;28;20191;-85
2024/03/10 05:23:08;;;;;;;8.37;7.57;;;9.90;99.90;;;;;;5006275;28;20211;-85
2024/03/10 05:25:33;;;;;;;9.17;7.50;;;9.80;99.90;;;;;;5006558;28;20662;-85
2024/03/10 05:27:59;;;;;;;8.10;7.30;;;9.80;99.90;;;;;;5016172;28;20228;-85
2024/03/10 05:30:25;;;;;;;7.83;7.03;;;9.80;99.90;;;;;;5007420;28;20191;-84
2024/03/10 05:32:51;;;;;;;8.27;7.30;;;9.80;99.90;;;;;;5022841;28;20168;-84
2024/03/10 05:35:18;;;;;;;9.00;7.50;;;9.90;99.90;;;;;;5019024;28;20192;-85
2024/03/10 05:37:43;;;;;;;8.57;7.43;;;9.90;99.90;;;;;;5008518;28;20172;-86
2024/03/10 05:40:09;;;;;;;11.37;7.70;;;9.90;99.90;;;;;;5017233;28;20183;-86
2024/03/10 05:42:35;;;;;;;14.17;11.53;;;9.90;99.90;;;;;;5010662;28;20186;-86
2024/03/10 05:45:02;;;;;;;9.67;8.23;;;9.90;99.90;;;;;;5004780;28;20292;-85
2024/03/10 05:47:31;;;;;;;8.73;7.43;;;9.90;99.90;;;;;;5007116;28;20221;-85
2024/03/10 05:49:57;;;;;;;8.70;7.03;;;9.90;99.90;;;;;;5021488;28;20634;-85
2024/03/10 05:52:24;;;;;;;8.13;7.20;;;9.90;99.90;;;;;;5009165;28;20210;-85
2024/03/10 05:54:51;;;;;;;12.83;10.93;;;9.90;99.90;;;;;;5016228;28;20197;-85
2024/03/10 05:57:17;;;;;;;10.20;8.23;;;9.90;99.90;;;;;;5006739;28;20481;-86
2024/03/10 05:59:47;;;;;;;9.07;7.43;;;9.90;99.90;;;;;;5009436;28;20210;-86
2024/03/10 06:02:16;;;;;;;8.50;7.60;;;9.90;99.90;;;;;;5000035;28;20234;-86
2024/03/10 06:04:45;;;;;;;9.93;7.93;;;9.90;99.90;;;;;;5007495;28;20740;-86
2024/03/10 06:07:13;;;;;;;13.03;11.63;;;9.90;99.90;;;;;;5024512;28;20294;-86
2024/03/10 06:09:39;;;;;;;10.37;8.43;;;9.90;99.90;;;;;;5027327;28;20247;-86
2024/03/10 06:12:06;;;;;;;9.90;7.97;;;9.80;99.90;;;;;;5010082;28;20203;-85
2024/03/10 06:14:33;;;;;;;9.50;8.60;;;9.70;99.90;;;;;;5000187;28;20677;-85
2024/03/10 06:17:00;;;;;;;8.30;7.40;;;9.70;99.90;;;;;;4997815;28;20311;-86
2024/03/10 06:25:25;;;;;;;9.40;8.40;;;9.80;99.90;;;;;;4973802;28;20226;-85
2024/03/10 06:27:51;;;;;;;10.83;9.67;;;9.70;99.90;;;;;;4997689;28;20322;-85
2024/03/10 06:30:19;;;;;;;13.40;10.20;;;9.80;99.90;;;;;;5020586;28;20189;-85
2024/03/10 06:32:47;;;;;;;8.10;7.37;;;9.80;99.90;;;;;;5015473;28;20667;-85
2024/03/10 06:35:13;;;;;;;8.80;7.73;;;9.70;99.90;;;;;;5015928;28;20645;-85
2024/03/10 06:37:40;;;;;;;9.60;8.00;;;9.70;99.90;;;;;;5015763;28;20184;-86
2024/03/10 06:40:09;;;;;;;8.27;7.30;;;9.70;99.90;;;;;;5023761;28;20180;-88
2024/03/10 06:42:36;;;;;;;8.27;7.30;;;9.70;99.90;;;;;;5000918;28;20187;-86
2024/03/10 06:45:01;;;;;;;9.30;7.67;;;9.70;99.90;;;;;;4999203;28;20195;-85
2024/03/10 06:47:27;;;;;;;8.70;7.27;;;9.60;99.90;;;;;;4998914;28;20212;-86
2024/03/10 06:49:54;;;;;;;7.90;7.03;;;9.70;99.90;;;;;;4999156;28;20248;-85
2024/03/10 06:52:19;;;;;;;11.33;8.97;;;9.70;99.90;;;;;;5017022;28;20263;-91
2024/03/10 06:54:45;;;;;;;10.53;9.30;;;9.70;99.90;;;;;;5006443;28;20215;-88
2024/03/10 06:57:12;;;;;;;8.83;7.80;;;9.80;99.90;;;;;;5005869;28;20194;-88
2024/03/10 06:59:38;;;;;;;10.10;7.63;;;9.80;99.90;;;;;;5019934;28;20184;-87
2024/03/10 07:02:07;;;;;;;8.87;7.97;;;9.80;99.90;;;;;;5028768;28;20163;-86
2024/03/10 07:04:33;;;;;;;9.07;7.97;;;9.80;99.90;;;;;;5020012;28;20278;-85
2024/03/10 07:06:58;;;;;;;9.90;7.60;;;9.80;99.90;;;;;;5004952;28;20246;-86
2024/03/10 07:09:25;;;;;;;9.13;7.53;;;9.90;99.90;;;;;;5014363;28;20184;-85
2024/03/10 07:11:55;;;;;;;9.30;7.50;;;9.90;99.90;;;;;;4997531;28;20184;-86
2024/03/10 07:14:20;;;;;;;8.47;7.10;;;9.90;99.90;;;;;;4999238;28;20294;-86
2024/03/10 07:16:47;;;;;;;8.50;7.37;;;9.90;99.90;;;;;;5016736;28;20187;-86
2024/03/10 07:19:17;;;;;;;9.47;7.37;;;10.00;99.90;;;;;;5004893;28;20184;-86
2024/03/10 07:21:45;;;;;;;11.27;7.30;;;10.00;99.90;;;;;;4997197;28;20665;-86
2024/03/10 07:24:11;;;;;;;8.23;7.30;;;10.00;99.90;;;;;;5003717;28;20203;-86
2024/03/10 07:26:37;;;;;;;11.50;7.00;;;10.10;99.90;;;;;;5005921;28;20207;-86
2024/03/10 07:29:03;;;;;;;8.70;6.63;;;10.10;99.90;;;;;;5026202;28;20191;-86
2024/03/10 07:31:28;;;;;;;11.00;7.80;;;10.10;99.90;;;;;;5010928;28;20626;-86
2024/03/10 07:33:56;;;;;;;9.53;7.90;;;10.10;99.90;;;;;;5005607;28;20229;-86
2024/03/10 07:36:26;;;;;;;8.17;7.00;;;10.20;99.90;;;;;;5023170;28;20211;-87
2024/03/10 07:38:53;;;;;;;9.93;7.93;;;10.20;99.90;;;;;;5002055;28;20183;-86
2024/03/10 07:41:21;;;;;;;9.77;8.13;;;10.30;99.90;;;;;;5002861;28;20210;-85
2024/03/10 07:43:47;;;;;;;9.23;8.13;;;10.40;99.90;;;;;;5022961;28;20232;-87
2024/03/10 07:46:14;;;;;;;11.37;7.73;;;10.40;99.90;;;;;;5025392;28;20204;-87
2024/03/10 07:48:39;;;;;;;9.90;8.30;;;10.50;99.90;;;;;;5011055;28;20180;-84
2024/03/10 07:51:05;;;;;;;11.87;8.80;;;10.60;99.90;;;;;;5008286;28;20181;-87
2024/03/10 07:53:31;;;;;;;9.50;8.20;;;10.70;99.90;;;;;;5006246;28;20203;-84
2024/03/10 07:55:59;;;;;;;9.23;8.37;;;10.70;99.90;;;;;;5009487;28;20243;-84
2024/03/10 07:58:28;;;;;;;10.37;8.30;;;10.80;99.90;;;;;;5010663;28;20603;-86
2024/03/10 08:00:57;;;;;;;12.07;8.57;;;10.90;99.90;;;;;;5002943;28;20187;-87
2024/03/10 08:03:23;;;;;;;9.60;7.87;;;11.00;99.90;;;;;;5020272;28;20283;-87
2024/03/10 08:05:49;;;;;;;9.20;8.03;;;11.10;99.90;;;;;;5019999;28;20203;-87
2024/03/10 08:08:15;;;;;;;9.67;8.40;;;11.20;99.90;;;;;;5003281;28;20219;-86
2024/03/10 08:10:41;;;;;;;10.47;9.40;;;11.30;99.90;;;;;;5028702;28;20177;-84
2024/03/10 08:13:09;;;;;;;9.60;7.40;;;11.50;99.90;;;;;;5019925;28;20204;-84
2024/03/10 08:15:36;;;;;;;9.50;7.40;;;11.80;99.90;;;;;;4986102;28;20299;-84
2024/03/10 08:18:01;;;;;;;9.40;7.57;;;12.00;99.90;;;;;;5019339;28;20553;-84
2024/03/10 08:20:27;;;;;;;9.07;7.43;;;12.20;99.90;;;;;;5002797;28;20184;-85
2024/03/10 08:22:53;;;;;;;9.00;7.43;;;12.60;99.90;;;;;;5006143;28;20191;-87
2024/03/10 08:25:18;;;;;;;9.53;6.90;;;13.10;99.90;;;;;;5005299;28;20192;-84
2024/03/10 08:27:45;;;;;;;8.80;6.77;;;13.60;98.10;;;;;;5002897;28;20239;-85
2024/03/10 08:30:11;;;;;;;9.60;7.13;;;14.00;96.70;;;;;;5002395;28;20207;-85
2024/03/10 08:32:37;;;;;;;9.77;7.07;;;14.40;95.00;;;;;;5002987;28;20181;-85
2024/03/10 08:35:07;;;;;;;9.40;7.30;;;14.90;94.60;;;;;;5020849;28;20199;-85
2024/03/10 08:37:37;;;;;;;10.20;7.70;;;15.40;92.10;;;;;;5003719;28;20176;-85
2024/03/10 08:40:13;;;;;;;9.37;7.40;;;15.80;90.70;;;;;;5003684;28;20230;-85
2024/03/10 08:42:41;;;;;;;8.90;7.30;;;15.70;85.00;;;;;;5022505;28;20214;-87
2024/03/10 08:45:08;;;;;;;9.50;7.80;;;15.40;84.50;;;;;;5014436;28;20582;-84
2024/03/10 08:47:35;;;;;;;9.10;7.70;;;15.40;85.70;;;;;;5037512;28;20203;-86
2024/03/10 08:50:02;;;;;;;10.33;7.70;;;15.20;83.10;;;;;;5022261;28;20183;-87
2024/03/10 08:52:27;;;;;;;10.50;7.40;;;15.10;83.70;;;;;;5022122;28;20191;-88
2024/03/10 08:54:53;;;;;;;11.03;8.40;;;14.90;80.70;;;;;;5010486;28;20272;-88
2024/03/10 08:57:19;;;;;;;9.67;7.67;;;14.50;83.90;;;;;;5004305;28;20723;-88
2024/03/10 08:59:45;;;;;;;9.30;8.23;;;14.10;84.90;;;;;;5021331;28;20270;-87
2024/03/10 09:02:12;;;;;;;9.10;7.63;;;14.00;85.90;;;;;;5003332;28;20267;-88
2024/03/10 09:04:37;;;;;;;8.80;7.83;;;14.00;87.20;;;;;;5004344;28;20234;-86
2024/03/10 09:07:05;;;;;;;9.87;8.07;;;14.00;85.40;;;;;;5022710;28;20239;-86
2024/03/10 09:09:31;;;;;;;9.57;8.07;;;14.10;86.80;;;;;;5001598;28;20254;-85
2024/03/10 09:11:56;;;;;;;8.57;7.67;;;14.40;89.30;;;;;;5003644;28;20176;-86
2024/03/10 09:14:22;;;;;;;8.97;7.43;;;14.90;86.80;;;;;;5027875;28;20258;-87
2024/03/10 09:16:50;;;;;;;7.77;6.97;;;15.20;84.00;;;;;;5003311;28;20192;-86
2024/03/10 09:19:15;;;;;;;8.63;7.37;;;15.60;83.30;;;;;;5028240;28;20176;-86
2024/03/10 09:21:43;;;;;;;11.80;9.63;;;16.00;82.60;;;;;;5008981;28;20268;-86
2024/03/10 09:24:09;;;;;;;8.97;7.53;;;16.30;77.70;;;;;;5009205;28;20214;-86
2024/03/10 09:26:35;;;;;;;10.13;6.90;;;16.40;76.30;;;;;;5026111;28;20196;-86
2024/03/10 09:29:01;;;;;;;8.90;7.47;;;16.40;75.20;;;;;;5017968;28;20708;-86
2024/03/10 09:31:27;;;;;;;9.73;7.43;;;16.40;75.10;;;;;;5007797;28;20219;-86
2024/03/10 09:33:53;;;;;;;9.83;8.23;;;16.50;74.40;;;;;;5019754;28;20195;-86
2024/03/10 09:36:18;;;;;;;11.20;8.18;;;16.80;78.50;;;;;;5026361;28;20203;-86
2024/03/10 09:38:46;;;;;;;7.73;6.93;;;17.20;75.60;;;;;;5017818;28;20180;-86
2024/03/10 09:41:12;;;;;;;9.10;7.90;;;17.40;75.50;;;;;;5018672;28;20259;-86
2024/03/10 09:43:40;;;;;;;9.87;7.40;;;17.50;73.40;;;;;;5000208;28;20224;-86
2024/03/10 09:46:10;;;;;;;8.05;6.97;;;17.40;72.30;;;;;;4985162;28;20216;-86
2024/03/10 09:48:37;;;;;;;8.23;7.28;;;17.50;72.30;;;;;;4999868;28;20172;-85
2024/03/10 09:51:03;;;;;;;8.93;7.03;;;17.80;72.00;;;;;;5017266;28;20182;-87
2024/03/10 09:53:29;;;;;;;8.07;7.28;;;18.00;70.80;;;;;;4999849;28;20260;-86
2024/03/10 09:55:55;;;;;;;12.00;8.57;;;18.30;67.70;;;;;;5000462;28;20242;-86
2024/03/10 09:58:34;;;;;;;9.50;6.80;;;18.20;65.90;;;;;;5017873;28;20665;-86
2024/03/10 10:01:11;;;;;;;7.55;6.75;;;18.50;69.10;;;;;;5018008;28;20199;-86
2024/03/10 10:03:39;;;;;;;7.38;6.55;;;18.90;71.60;;;;;;5017612;28;20661;-86
2024/03/10 10:06:08;;;;;;;7.78;6.88;;;19.30;66.50;;;;;;5001994;28;20180;-86
2024/03/10 10:08:34;;;;;;;8.80;7.00;;;19.50;63.70;;;;;;5001848;28;20172;-85
2024/03/10 10:11:00;;;;;;;9.60;6.93;;;19.30;59.10;;;;;;5000155;28;20180;-86
2024/03/10 10:13:27;;;;;;;9.00;7.00;;;19.30;64.20;;;;;;5003869;28;20196;-86
2024/03/10 10:18:32;;;;;;;7.45;6.25;;;19.90;59.80;;;;;;5007784;28;20220;-72
2024/03/10 10:20:58;;;;;;;7.65;6.75;;;20.00;60.30;;;;;;5004351;28;20177;-71
2024/03/10 10:23:24;;;;;;;7.38;6.57;;;20.00;57.20;;;;;;4993285;28;20663;-72
2024/03/10 10:25:54;;;;;;;9.25;7.40;;;19.80;55.60;;;;;;4988594;28;20178;-72
2024/03/10 10:28:20;;;;;;;8.45;6.82;;;19.50;57.00;;;;;;4992644;28;20212;-72
2024/03/10 10:30:46;;;;;;;7.82;6.63;;;19.50;56.50;;;;;;4992722;28;20561;-73
2024/03/10 10:33:13;;;;;;;7.63;6.80;;;19.70;58.80;;;;;;4998477;28;20196;-72
2024/03/10 10:35:45;;;;;;;8.55;6.85;;;19.70;54.40;;;;;;4995708;28;20173;-72
2024/03/10 10:38:11;;;;;;;8.45;7.07;;;19.80;55.30;;;;;;4997886;28;20187;-72
2024/03/10 10:40:58;;;;;;;8.18;7.20;;;19.80;56.30;;;;;;4989986;28;20216;-72
2024/03/10 10:43:24;;;;;;;9.02;7.18;;;19.70;55.60;;;;;;4992571;28;20279;-71
2024/03/10 10:45:49;;;;;;;7.47;6.63;;;19.40;53.70;;;;;;4977039;28;20731;-72
2024/03/10 10:48:19;;;;;;;7.40;6.60;;;19.30;55.50;;;;;;4999071;28;20295;-72
2024/03/10 10:50:47;;;;;;;7.47;6.70;;;19.20;54.40;;;;;;4992156;28;20184;-72
2024/03/10 10:53:15;;;;;;;8.18;6.63;;;19.30;59.20;;;;;;4992267;28;20640;-72
2024/03/10 10:55:42;;;;;;;8.10;6.93;;;19.60;57.50;;;;;;5000315;28;20581;-72
2024/03/10 10:58:15;;;;;;;7.50;6.75;;;19.70;53.40;;;;;;4992703;28;20566;-73
2024/03/10 11:00:50;;;;;;;7.53;6.47;;;19.80;57.30;;;;;;4992271;28;20219;-72
2024/03/10 11:03:18;;;;;;;7.53;6.72;;;20.10;56.00;;;;;;4992500;28;20247;-73
2024/03/10 11:06:15;;;;;;;9.60;7.75;;;20.10;54.00;;;;;;5000842;28;20176;-71
2024/03/10 11:08:42;;;;;;;8.95;7.10;;;19.90;52.90;;;;;;5000352;28;20188;-72
2024/03/10 11:11:16;;;;;;;9.70;7.53;;;19.50;51.30;;;;;;4992417;28;20192;-73
2024/03/10 11:13:45;;;;;;;8.23;6.97;;;19.10;53.40;;;;;;4992637;28;20595;-72
2024/03/10 11:16:20;;;;;;;8.98;7.78;;;18.70;52.80;;;;;;4992434;28;20181;-72
2024/03/10 11:18:46;;;;;;;8.48;7.55;;;18.40;53.90;;;;;;5001021;28;20191;-72
2024/03/10 11:21:19;;;;;;;8.50;7.65;;;18.40;51.90;;;;;;4992461;28;20189;-72
2024/03/10 11:23:47;;;;;;;8.00;6.97;;;18.30;52.50;;;;;;4993876;28;20577;-74
2024/03/10 11:26:20;;;;;;;8.75;7.40;;;18.30;52.70;;;;;;4998957;28;20181;-72
2024/03/10 11:28:59;;;;;;;13.65;7.15;;;18.40;53.90;;;;;;5000214;28;20211;-72
2024/03/10 11:31:35;;;;;;;7.45;6.68;;;18.50;55.10;;;;;;5000288;28;20228;-73
2024/03/10 11:34:04;;;;;;;8.23;6.75;;;18.60;56.20;;;;;;4999136;28;20176;-73
2024/03/10 11:36:38;;;;;;;9.60;7.28;;;18.60;54.10;;;;;;4991908;28;20256;-72
2024/03/10 11:39:05;;;;;;;7.22;6.53;;;18.70;53.90;;;;;;4984157;28;20232;-73
2024/03/10 11:41:31;;;;;;;7.78;6.97;;;18.80;55.20;;;;;;4992159;28;20205;-72
2024/03/10 11:43:58;;;;;;;9.93;7.25;;;19.10;55.10;;;;;;4992241;28;20214;-72
2024/03/10 11:46:29;;;;;;;7.43;6.32;;;19.50;54.80;;;;;;4992034;28;20279;-72
2024/03/10 11:48:56;;;;;;;6.88;6.10;;;20.00;54.40;;;;;;4993833;28;20559;-73
2024/03/10 11:51:26;;;;;;;8.32;6.78;;;20.50;52.40;;;;;;4997404;28;20531;-74
2024/03/10 11:53:52;;;;;;;9.65;7.32;;;20.70;52.60;;;;;;4991610;28;20181;-73
2024/03/10 11:56:18;;;;;;;8.57;6.65;;;20.90;53.20;;;;;;4991808;28;20546;-72
2024/03/10 11:58:46;;;;;;;7.97;7.18;;;21.20;53.00;;;;;;4987217;28;20173;-73
2024/03/10 12:01:12;;;;;;;10.60;7.65;;;21.20;50.90;;;;;;4991680;28;20177;-72
2024/03/10 12:03:39;;;;;;;8.50;7.15;;;21.30;51.00;;;;;;4988859;28;20169;-72
2024/03/10 12:06:06;;;;;;;9.13;7.85;;;21.30;50.40;;;;;;4991658;28;20203;-72
2024/03/10 12:08:39;;;;;;;9.60;8.02;;;21.10;49.40;;;;;;4991892;28;20252;-72
2024/03/10 12:11:05;;;;;;;9.43;7.30;;;20.90;49.20;;;;;;4991615;28;20188;-72
2024/03/10 12:13:32;;;;;;;8.65;7.85;;;20.70;49.10;;;;;;4991797;28;20185;-72
2024/03/10 12:16:05;;;;;;;9.65;7.82;;;20.70;50.70;;;;;;4994578;28;20203;-72
2024/03/10 12:18:35;;;;;;;8.20;7.15;;;20.70;50.10;;;;;;4990886;28;20188;-72
2024/03/10 12:21:03;;;;;;;9.02;7.55;;;20.80;50.00;;;;;;4995284;28;20176;-72
2024/03/10 12:23:36;;;;;;;10.98;7.43;;;20.80;50.00;;;;;;4995203;28;20173;-71
2024/03/10 12:26:09;;;;;;;9.07;7.80;;;21.10;50.00;;;;;;4994715;28;20634;-72
2024/03/10 12:28:41;;;;;;;8.43;7.15;;;21.40;48.70;;;;;;4988768;28;20189;-72
2024/03/10 12:31:12;;;;;;;8.48;7.05;;;21.40;46.00;;;;;;4987261;28;20659;-72
2024/03/10 12:33:39;;;;;;;7.53;6.78;;;21.20;46.30;;;;;;4994996;28;20188;-72
2024/03/10 12:36:06;;;;;;;7.75;6.82;;;20.80;43.70;;;;;;4994911;28;20168;-72
2024/03/10 12:38:33;;;;;;;10.60;7.82;;;20.20;46.50;;;;;;4994682;28;20271;-71
2024/03/10 12:40:58;;;;;;;8.10;7.22;;;19.50;46.40;;;;;;4994853;28;20207;-72
2024/03/10 12:43:24;;;;;;;8.93;6.90;;;19.20;48.20;;;;;;4994877;28;20824;-72
2024/03/10 12:45:51;;;;;;;8.30;7.43;;;19.10;48.20;;;;;;4994864;28;20177;-73
2024/03/10 12:48:17;;;;;;;9.00;7.43;;;19.00;47.30;;;;;;4994787;28;20215;-72
2024/03/10 12:50:42;;;;;;;9.50;7.10;;;18.90;49.10;;;;;;4994349;28;20181;-73
2024/03/10 12:53:08;;;;;;;9.07;7.35;;;18.90;46.70;;;;;;4994347;28;20223;-72
2024/03/10 12:55:34;;;;;;;8.15;7.15;;;19.00;49.90;;;;;;4994252;28;21014;-73
2024/03/10 12:58:00;;;;;;;8.27;7.35;;;19.30;49.60;;;;;;4994191;28;20264;-72
2024/03/10 13:00:30;;;;;;;8.50;6.88;;;19.80;48.40;;;;;;4994198;28;20195;-72
2024/03/10 13:02:57;;;;;;;9.18;6.80;;;20.30;49.80;;;;;;4992434;28;20200;-72
2024/03/10 13:05:24;;;;;;;8.57;7.10;;;20.90;48.60;;;;;;4993928;28;20181;-72
2024/03/10 13:07:50;;;;;;;8.20;6.25;;;21.00;45.90;;;;;;4976341;28;20208;-73
2024/03/10 13:10:16;;;;;;;7.82;6.75;;;21.10;48.50;;;;;;4994492;28;20181;-72